YZP weather

Sandspit Airport
Sandspit, British Columbia, Canada

Public forecast

Using degrees Celsius for public forecast. Weather courtesy of forecast.io.

METAR (pilot weather report)

Retrieved 2019/08/26 08:00 UTC (33 minutes ago):

CYZP 260800Z AUTO 22004KT 9SM SCT036 BKN045 OVC060 15/12 A3026 RMK SLP249

TAF (pilot weather forecast)

Retrieved 2019/08/26 07:42 UTC (51 minutes ago):

TAF CYZP 260639Z 2607/2619 23006KT P6SM SCT015 BKN050 TEMPO 2607/2609 4SM -SHRA BR BKN015 FM260900 24008KT P6SM SCT008 OVC020 TEMPO 2609/2614 4SM -SHRA BR OVC008 FM261400 18010KT P6SM -RA SCT008 OVC050 TEMPO 2614/2619 2SM -RA BR BKN006 BECMG 2616/2618 14015G25KT RMK FCST BASED ON AUTO OBS. NXT FCST BY 261300Z